sensor_id;sensor_type;location;lat;lon;timestamp;pressure;altitude;pressure_sealevel;temperature;humidity
1371;BME280;14306;49.942;11.570;2023-06-24T00:01:44;98397.81;;;16.15;92.20
1371;BME280;14306;49.942;11.570;2023-06-24T00:04:12;98406.53;;;16.25;92.26
1371;BME280;14306;49.942;11.570;2023-06-24T00:06:43;98402.38;;;16.19;92.46
1371;BME280;14306;49.942;11.570;2023-06-24T00:09:11;98406.53;;;16.25;92.66
1371;BME280;14306;49.942;11.570;2023-06-24T00:11:39;98405.38;;;16.48;92.44
1371;BME280;14306;49.942;11.570;2023-06-24T00:14:08;98407.66;;;16.63;91.63
1371;BME280;14306;49.942;11.570;2023-06-24T00:16:37;98396.88;;;16.58;91.49
1371;BME280;14306;49.942;11.570;2023-06-24T00:19:05;98396.84;;;16.50;92.85
1371;BME280;14306;49.942;11.570;2023-06-24T00:21:35;98402.06;;;16.77;92.37
1371;BME280;14306;49.942;11.570;2023-06-24T00:24:05;98408.38;;;17.03;91.05
1371;BME280;14306;49.942;11.570;2023-06-24T00:26:33;98396.47;;;17.16;90.96
1371;BME280;14306;49.942;11.570;2023-06-24T00:29:01;98405.16;;;17.09;90.92
1371;BME280;14306;49.942;11.570;2023-06-24T00:31:29;98415.50;;;17.21;90.46
1371;BME280;14306;49.942;11.570;2023-06-24T00:33:58;98417.91;;;17.39;90.54
1371;BME280;14306;49.942;11.570;2023-06-24T00:36:26;98411.75;;;17.25;90.35
1371;BME280;14306;49.942;11.570;2023-06-24T00:38:55;98410.31;;;17.36;90.92
1371;BME280;14306;49.942;11.570;2023-06-24T00:41:24;98401.16;;;17.24;91.22
1371;BME280;14306;49.942;11.570;2023-06-24T00:43:53;98402.28;;;17.23;90.33
1371;BME280;14306;49.942;11.570;2023-06-24T00:46:21;98391.50;;;17.26;90.76
1371;BME280;14306;49.942;11.570;2023-06-24T00:48:49;98399.38;;;17.19;90.98
1371;BME280;14306;49.942;11.570;2023-06-24T00:51:17;98398.88;;;17.00;90.86
1371;BME280;14306;49.942;11.570;2023-06-24T00:53:47;98401.94;;;16.99;90.84
1371;BME280;14306;49.942;11.570;2023-06-24T00:56:16;98407.25;;;17.04;90.94
1371;BME280;14306;49.942;11.570;2023-06-24T00:58:47;98401.31;;;17.10;90.21
1371;BME280;14306;49.942;11.570;2023-06-24T01:01:17;98401.63;;;17.09;90.59
1371;BME280;14306;49.942;11.570;2023-06-24T01:03:46;98389.56;;;17.18;91.38
1371;BME280;14306;49.942;11.570;2023-06-24T01:06:14;98395.34;;;17.34;90.34
1371;BME280;14306;49.942;11.570;2023-06-24T01:08:43;98401.78;;;17.29;90.36
1371;BME280;14306;49.942;11.570;2023-06-24T01:11:17;98407.75;;;17.23;90.16
1371;BME280;14306;49.942;11.570;2023-06-24T01:13:46;98400.19;;;17.54;89.93
1371;BME280;14306;49.942;11.570;2023-06-24T01:16:20;98397.75;;;17.61;89.60
1371;BME280;14306;49.942;11.570;2023-06-24T01:18:55;98390.22;;;17.24;90.71
1371;BME280;14306;49.942;11.570;2023-06-24T01:21:37;98385.84;;;17.57;88.80
1371;BME280;14306;49.942;11.570;2023-06-24T01:24:25;98381.69;;;17.51;88.77
1371;BME280;14306;49.942;11.570;2023-06-24T01:27:26;98380.22;;;17.45;89.17
1371;BME280;14306;49.942;11.570;2023-06-24T01:30:17;98381.50;;;17.47;89.80
1371;BME280;14306;49.942;11.570;2023-06-24T01:32:53;98377.34;;;17.41;90.09
1371;BME280;14306;49.942;11.570;2023-06-24T01:35:27;98372.97;;;17.32;90.09
1371;BME280;14306;49.942;11.570;2023-06-24T01:37:59;98373.59;;;17.46;89.64
1371;BME280;14306;49.942;11.570;2023-06-24T01:40:31;98368.13;;;17.29;90.33
1371;BME280;14306;49.942;11.570;2023-06-24T01:43:03;98371.66;;;17.38;90.05
1371;BME280;14306;49.942;11.570;2023-06-24T01:45:36;98375.34;;;17.67;88.57
1371;BME280;14306;49.942;11.570;2023-06-24T01:48:13;98369.41;;;17.40;89.59
1371;BME280;14306;49.942;11.570;2023-06-24T01:50:51;98366.66;;;17.48;89.89
1371;BME280;14306;49.942;11.570;2023-06-24T01:53:24;98370.22;;;17.06;91.39
1371;BME280;14306;49.942;11.570;2023-06-24T01:56:07;98366.84;;;17.52;89.83
1371;BME280;14306;49.942;11.570;2023-06-24T01:58:47;98360.41;;;17.48;88.75
1371;BME280;14306;49.942;11.570;2023-06-24T02:01:18;98375.06;;;17.43;89.27
1371;BME280;14306;49.942;11.570;2023-06-24T02:03:48;98356.66;;;17.61;89.03
1371;BME280;14306;49.942;11.570;2023-06-24T02:06:18;98356.53;;;17.57;89.36
1371;BME280;14306;49.942;11.570;2023-06-24T02:08:48;98354.28;;;17.51;88.90
1371;BME280;14306;49.942;11.570;2023-06-24T02:11:19;98354.78;;;17.90;88.19
1371;BME280;14306;49.942;11.570;2023-06-24T02:13:50;98348.53;;;17.90;87.26
1371;BME280;14306;49.942;11.570;2023-06-24T02:16:20;98358.69;;;17.81;88.00
1371;BME280;14306;49.942;11.570;2023-06-24T02:18:50;98361.59;;;17.93;87.26
1371;BME280;14306;49.942;11.570;2023-06-24T02:21:19;98361.84;;;18.00;87.11
1371;BME280;14306;49.942;11.570;2023-06-24T02:23:48;98356.75;;;17.90;87.67
1371;BME280;14306;49.942;11.570;2023-06-24T02:26:17;98360.28;;;17.90;87.16
1371;BME280;14306;49.942;11.570;2023-06-24T02:28:46;98355.56;;;18.08;85.74
1371;BME280;14306;49.942;11.570;2023-06-24T02:31:14;98342.19;;;17.60;87.89
1371;BME280;14306;49.942;11.570;2023-06-24T02:33:43;98344.84;;;17.77;86.98
1371;BME280;14306;49.942;11.570;2023-06-24T02:36:12;98333.94;;;17.35;88.46
1371;BME280;14306;49.942;11.570;2023-06-24T02:38:40;98338.78;;;17.38;88.81
1371;BME280;14306;49.942;11.570;2023-06-24T02:41:09;98342.72;;;17.91;87.22
1371;BME280;14306;49.942;11.570;2023-06-24T02:43:37;98350.94;;;17.91;87.77
1371;BME280;14306;49.942;11.570;2023-06-24T02:46:05;98351.47;;;18.51;84.92
1371;BME280;14306;49.942;11.570;2023-06-24T02:48:34;98355.84;;;18.15;85.14
1371;BME280;14306;49.942;11.570;2023-06-24T02:51:06;98348.13;;;18.08;85.90
1371;BME280;14306;49.942;11.570;2023-06-24T02:53:38;98347.50;;;17.48;87.73
1371;BME280;14306;49.942;11.570;2023-06-24T02:56:08;98350.59;;;17.47;88.74
1371;BME280;14306;49.942;11.570;2023-06-24T02:58:40;98344.22;;;17.80;87.19
1371;BME280;14306;49.942;11.570;2023-06-24T03:01:10;98362.47;;;18.14;85.96
1371;BME280;14306;49.942;11.570;2023-06-24T03:03:40;98357.00;;;18.05;85.63
1371;BME280;14306;49.942;11.570;2023-06-24T03:06:08;98362.94;;;18.53;83.82
1371;BME280;14306;49.942;11.570;2023-06-24T03:08:40;98363.56;;;18.59;84.56
1371;BME280;14306;49.942;11.570;2023-06-24T03:11:12;98358.34;;;18.28;83.66
1371;BME280;14306;49.942;11.570;2023-06-24T03:13:40;98365.56;;;18.70;82.91
1371;BME280;14306;49.942;11.570;2023-06-24T03:16:08;98365.59;;;17.95;85.97
1371;BME280;14306;49.942;11.570;2023-06-24T03:18:40;98370.66;;;18.22;84.57
1371;BME280;14306;49.942;11.570;2023-06-24T03:21:08;98376.03;;;18.48;84.08
1371;BME280;14306;49.942;11.570;2023-06-24T03:23:36;98385.25;;;19.01;82.30
1371;BME280;14306;49.942;11.570;2023-06-24T03:26:07;98379.81;;;18.93;82.03
1371;BME280;14306;49.942;11.570;2023-06-24T03:28:36;98378.31;;;18.46;83.83
1371;BME280;14306;49.942;11.570;2023-06-24T03:31:05;98380.09;;;18.71;82.63
1371;BME280;14306;49.942;11.570;2023-06-24T03:33:33;98384.06;;;18.82;82.60
1371;BME280;14306;49.942;11.570;2023-06-24T03:36:01;98390.63;;;18.23;83.47
1371;BME280;14306;49.942;11.570;2023-06-24T03:38:29;98396.53;;;18.50;84.17
1371;BME280;14306;49.942;11.570;2023-06-24T03:40:57;98389.75;;;18.48;83.17
1371;BME280;14306;49.942;11.570;2023-06-24T03:43:27;98386.56;;;18.95;82.01
1371;BME280;14306;49.942;11.570;2023-06-24T03:45:55;98396.03;;;18.77;83.08
1371;BME280;14306;49.942;11.570;2023-06-24T03:48:24;98402.16;;;18.83;82.35
1371;BME280;14306;49.942;11.570;2023-06-24T03:50:52;98398.66;;;18.45;83.87
1371;BME280;14306;49.942;11.570;2023-06-24T03:53:21;98402.44;;;18.61;82.86
1371;BME280;14306;49.942;11.570;2023-06-24T03:55:49;98414.44;;;18.56;84.60
1371;BME280;14306;49.942;11.570;2023-06-24T03:58:17;98412.44;;;18.19;85.88
1371;BME280;14306;49.942;11.570;2023-06-24T04:00:49;98419.38;;;18.25;85.44
1371;BME280;14306;49.942;11.570;2023-06-24T04:03:17;98423.00;;;18.46;84.92
1371;BME280;14306;49.942;11.570;2023-06-24T04:05:46;98426.59;;;18.30;86.61
1371;BME280;14306;49.942;11.570;2023-06-24T04:08:14;98427.94;;;18.24;86.42
1371;BME280;14306;49.942;11.570;2023-06-24T04:10:43;98426.88;;;18.08;86.83
1371;BME280;14306;49.942;11.570;2023-06-24T04:13:11;98428.91;;;18.65;85.67
1371;BME280;14306;49.942;11.570;2023-06-24T04:15:39;98422.47;;;18.90;84.27
1371;BME280;14306;49.942;11.570;2023-06-24T04:18:09;98428.44;;;19.13;83.52
1371;BME280;14306;49.942;11.570;2023-06-24T04:20:37;98427.56;;;18.42;85.24
1371;BME280;14306;49.942;11.570;2023-06-24T04:23:06;98435.63;;;18.76;84.79
1371;BME280;14306;49.942;11.570;2023-06-24T04:25:37;98436.38;;;19.35;82.33
1371;BME280;14306;49.942;11.570;2023-06-24T04:28:05;98438.56;;;18.71;84.21
1371;BME280;14306;49.942;11.570;2023-06-24T04:30:33;98437.88;;;19.03;82.92
1371;BME280;14306;49.942;11.570;2023-06-24T04:33:02;98448.97;;;18.86;83.46
1371;BME280;14306;49.942;11.570;2023-06-24T04:35:32;98450.78;;;18.82;83.85
1371;BME280;14306;49.942;11.570;2023-06-24T04:38:00;98450.00;;;18.73;83.84
1371;BME280;14306;49.942;11.570;2023-06-24T04:57:28;98467.94;;;19.29;82.68
1371;BME280;14306;49.942;11.570;2023-06-24T04:59:57;98470.59;;;19.46;81.71
1371;BME280;14306;49.942;11.570;2023-06-24T05:02:26;98464.16;;;19.13;84.04
1371;BME280;14306;49.942;11.570;2023-06-24T05:04:54;98476.84;;;19.26;83.44
1371;BME280;14306;49.942;11.570;2023-06-24T05:07:23;98476.38;;;19.24;81.09
1371;BME280;14306;49.942;11.570;2023-06-24T05:09:51;98474.09;;;18.97;85.06
1371;BME280;14306;49.942;11.570;2023-06-24T05:12:19;98479.59;;;19.26;83.09
1371;BME280;14306;49.942;11.570;2023-06-24T05:14:51;98480.09;;;19.69;79.67
1371;BME280;14306;49.942;11.570;2023-06-24T05:17:19;98484.50;;;19.62;80.04
1371;BME280;14306;49.942;11.570;2023-06-24T05:19:48;98476.06;;;19.46;81.38
1371;BME280;14306;49.942;11.570;2023-06-24T05:22:17;98483.66;;;19.29;81.81
1371;BME280;14306;49.942;11.570;2023-06-24T05:24:45;98475.53;;;19.73;84.14
1371;BME280;14306;49.942;11.570;2023-06-24T05:27:15;98483.59;;;20.67;76.09
1371;BME280;14306;49.942;11.570;2023-06-24T05:29:44;98479.13;;;20.63;78.67
1371;BME280;14306;49.942;11.570;2023-06-24T05:32:14;98473.53;;;20.83;78.16
1371;BME280;14306;49.942;11.570;2023-06-24T05:34:44;98474.56;;;21.15;74.34
1371;BME280;14306;49.942;11.570;2023-06-24T05:37:12;98477.44;;;20.94;76.70
1371;BME280;14306;49.942;11.570;2023-06-24T05:39:41;98462.38;;;20.56;81.06
1371;BME280;14306;49.942;11.570;2023-06-24T05:42:09;98469.28;;;21.73;72.96
1371;BME280;14306;49.942;11.570;2023-06-24T05:44:37;98471.69;;;21.75;72.44
1371;BME280;14306;49.942;11.570;2023-06-24T05:47:06;98470.16;;;22.32;70.66
1371;BME280;14306;49.942;11.570;2023-06-24T05:49:35;98477.38;;;21.94;75.47
1371;BME280;14306;49.942;11.570;2023-06-24T05:52:04;98476.88;;;21.76;74.27
1371;BME280;14306;49.942;11.570;2023-06-24T05:54:32;98477.66;;;22.32;73.50
1371;BME280;14306;49.942;11.570;2023-06-24T05:57:01;98486.00;;;21.92;74.64
1371;BME280;14306;49.942;11.570;2023-06-24T05:59:33;98484.03;;;22.20;74.33
1371;BME280;14306;49.942;11.570;2023-06-24T06:02:01;98478.69;;;21.84;77.76
1371;BME280;14306;49.942;11.570;2023-06-24T06:04:29;98478.41;;;22.17;73.08
1371;BME280;14306;49.942;11.570;2023-06-24T06:06:59;98477.31;;;22.49;71.21
1371;BME280;14306;49.942;11.570;2023-06-24T06:09:27;98478.31;;;22.13;72.67
1371;BME280;14306;49.942;11.570;2023-06-24T06:11:55;98482.31;;;21.49;79.07
1371;BME280;14306;49.942;11.570;2023-06-24T06:14:24;98486.28;;;22.30;74.87
1371;BME280;14306;49.942;11.570;2023-06-24T06:16:52;98484.69;;;22.45;73.39
1371;BME280;14306;49.942;11.570;2023-06-24T06:19:20;98489.94;;;23.43;68.59
1371;BME280;14306;49.942;11.570;2023-06-24T06:21:51;98469.75;;;22.62;72.93
1371;BME280;14306;49.942;11.570;2023-06-24T06:24:20;98495.34;;;23.55;66.79
1371;BME280;14306;49.942;11.570;2023-06-24T06:26:49;98485.91;;;23.22;69.34
1371;BME280;14306;49.942;11.570;2023-06-24T06:29:17;98483.31;;;22.82;76.57
1371;BME280;14306;49.942;11.570;2023-06-24T06:31:46;98483.09;;;22.44;73.31
1371;BME280;14306;49.942;11.570;2023-06-24T06:34:15;98492.91;;;23.88;67.89
1371;BME280;14306;49.942;11.570;2023-06-24T06:36:43;98493.50;;;24.58;66.60
1371;BME280;14306;49.942;11.570;2023-06-24T06:39:11;98483.25;;;25.03;67.38
1371;BME280;14306;49.942;11.570;2023-06-24T06:41:41;98487.50;;;24.97;61.84
1371;BME280;14306;49.942;11.570;2023-06-24T06:44:09;98486.22;;;24.91;59.23
1371;BME280;14306;49.942;11.570;2023-06-24T06:46:37;98477.69;;;25.03;65.60
1371;BME280;14306;49.942;11.570;2023-06-24T06:49:06;98486.44;;;26.53;65.63
1371;BME280;14306;49.942;11.570;2023-06-24T06:51:34;98507.78;;;30.67;51.57
1371;BME280;14306;49.942;11.570;2023-06-24T06:54:03;98482.66;;;29.57;56.21
1371;BME280;14306;49.942;11.570;2023-06-24T06:56:32;98536.13;;;32.53;43.30
1371;BME280;14306;49.942;11.570;2023-06-24T06:59:02;98508.16;;;31.34;44.95
1371;BME280;14306;49.942;11.570;2023-06-24T07:01:30;98498.00;;;30.35;44.12
1371;BME280;14306;49.942;11.570;2023-06-24T07:03:59;98507.47;;;30.55;46.51
1371;BME280;14306;49.942;11.570;2023-06-24T07:06:27;98486.97;;;29.96;48.00
1371;BME280;14306;49.942;11.570;2023-06-24T07:08:55;98479.13;;;29.28;46.95
1371;BME280;14306;49.942;11.570;2023-06-24T07:11:24;98490.09;;;30.19;44.89
1371;BME280;14306;49.942;11.570;2023-06-24T07:13:52;98559.00;;;33.08;39.14
1371;BME280;14306;49.942;11.570;2023-06-24T07:16:21;98609.28;;;35.54;34.00
1371;BME280;14306;49.942;11.570;2023-06-24T07:18:50;98582.88;;;34.38;34.14
1371;BME280;14306;49.942;11.570;2023-06-24T07:21:18;98560.13;;;33.40;39.39
1371;BME280;14306;49.942;11.570;2023-06-24T07:23:46;98581.22;;;33.98;35.17
1371;BME280;14306;49.942;11.570;2023-06-24T07:26:16;98623.22;;;35.77;33.34
1371;BME280;14306;49.942;11.570;2023-06-24T07:28:44;98631.75;;;36.50;30.86
1371;BME280;14306;49.942;11.570;2023-06-24T07:31:31;98548.63;;;32.75;36.56
1371;BME280;14306;49.942;11.570;2023-06-24T07:33:59;98586.59;;;34.31;36.54
1371;BME280;14306;49.942;11.570;2023-06-24T07:36:28;98536.53;;;32.81;37.38
1371;BME280;14306;49.942;11.570;2023-06-24T07:38:56;98614.75;;;35.61;32.36
1371;BME280;14306;49.942;11.570;2023-06-24T07:41:24;98591.88;;;35.23;33.84
1371;BME280;14306;49.942;11.570;2023-06-24T07:43:53;98632.94;;;36.53;30.72
1371;BME280;14306;49.942;11.570;2023-06-24T07:46:21;98610.09;;;36.03;33.02
1371;BME280;14306;49.942;11.570;2023-06-24T07:48:51;98669.31;;;38.20;28.46
1371;BME280;14306;49.942;11.570;2023-06-24T07:51:19;98587.19;;;35.17;32.86
1371;BME280;14306;49.942;11.570;2023-06-24T07:53:48;98596.63;;;35.78;31.86
1371;BME280;14306;49.942;11.570;2023-06-24T07:56:17;98625.13;;;36.98;32.41
1371;BME280;14306;49.942;11.570;2023-06-24T07:58:46;98602.84;;;35.86;31.51
1371;BME280;14306;49.942;11.570;2023-06-24T08:01:14;98672.53;;;38.44;29.04
1371;BME280;14306;49.942;11.570;2023-06-24T08:03:42;98688.31;;;39.01;26.84
1371;BME280;14306;49.942;11.570;2023-06-24T08:06:12;98573.44;;;35.03;32.20
1371;BME280;14306;49.942;11.570;2023-06-24T08:08:41;98641.44;;;37.60;28.79
1371;BME280;14306;49.942;11.570;2023-06-24T08:11:09;98589.63;;;35.67;31.40
1371;BME280;14306;49.942;11.570;2023-06-24T08:13:39;98635.84;;;37.31;29.19
1371;BME280;14306;49.942;11.570;2023-06-24T08:16:08;98647.16;;;37.56;29.23
1371;BME280;14306;49.942;11.570;2023-06-24T08:18:36;98665.81;;;38.16;28.28
1371;BME280;14306;49.942;11.570;2023-06-24T08:21:06;98680.88;;;38.60;27.98
1371;BME280;14306;49.942;11.570;2023-06-24T08:23:35;98650.56;;;37.51;29.40
1371;BME280;14306;49.942;11.570;2023-06-24T08:26:04;98640.47;;;37.25;29.06
1371;BME280;14306;49.942;11.570;2023-06-24T08:28:42;98648.31;;;37.71;29.26
1371;BME280;14306;49.942;11.570;2023-06-24T08:31:11;98647.63;;;37.42;29.04
1371;BME280;14306;49.942;11.570;2023-06-24T08:33:43;98630.94;;;37.07;29.58
1371;BME280;14306;49.942;11.570;2023-06-24T08:36:12;98607.19;;;36.35;30.12
1371;BME280;14306;49.942;11.570;2023-06-24T08:38:41;98583.03;;;35.05;33.41
1371;BME280;14306;49.942;11.570;2023-06-24T08:41:10;98623.53;;;36.72;30.37
1371;BME280;14306;49.942;11.570;2023-06-24T08:43:38;98590.63;;;35.76;31.45
1371;BME280;14306;49.942;11.570;2023-06-24T08:46:07;98628.66;;;36.61;29.95
1371;BME280;14306;49.942;11.570;2023-06-24T08:48:38;98595.81;;;35.45;32.28
1371;BME280;14306;49.942;11.570;2023-06-24T08:51:09;98582.97;;;35.09;32.50
1371;BME280;14306;49.942;11.570;2023-06-24T08:53:43;98677.84;;;38.42;28.75
1371;BME280;14306;49.942;11.570;2023-06-24T08:56:13;98695.41;;;39.27;27.07
1371;BME280;14306;49.942;11.570;2023-06-24T08:58:42;98697.50;;;39.35;27.47
1371;BME280;14306;49.942;11.570;2023-06-24T09:01:11;98686.63;;;39.12;27.51
1371;BME280;14306;49.942;11.570;2023-06-24T09:03:40;98700.53;;;39.71;26.27
1371;BME280;14306;49.942;11.570;2023-06-24T09:06:11;98647.25;;;37.90;27.52
1371;BME280;14306;49.942;11.570;2023-06-24T09:08:39;98656.06;;;38.17;27.58
1371;BME280;14306;49.942;11.570;2023-06-24T09:11:10;98658.91;;;38.51;26.17
1371;BME280;14306;49.942;11.570;2023-06-24T09:13:38;98665.78;;;38.85;26.11
1371;BME280;14306;49.942;11.570;2023-06-24T09:16:13;98657.56;;;38.43;27.05
1371;BME280;14306;49.942;11.570;2023-06-24T09:18:47;98598.75;;;36.19;27.97
1371;BME280;14306;49.942;11.570;2023-06-24T09:21:21;98608.13;;;36.73;28.31
1371;BME280;14306;49.942;11.570;2023-06-24T09:23:52;98617.25;;;36.64;29.00
1371;BME280;14306;49.942;11.570;2023-06-24T09:26:24;98603.75;;;36.56;29.25
1371;BME280;14306;49.942;11.570;2023-06-24T09:28:53;98641.94;;;37.92;26.82
1371;BME280;14306;49.942;11.570;2023-06-24T09:31:23;98569.88;;;35.67;28.94
1371;BME280;14306;49.942;11.570;2023-06-24T09:33:52;98627.25;;;37.47;27.33
1371;BME280;14306;49.942;11.570;2023-06-24T09:36:24;98611.34;;;37.00;27.30
1371;BME280;14306;49.942;11.570;2023-06-24T09:38:54;98584.84;;;36.40;27.66
1371;BME280;14306;49.942;11.570;2023-06-24T09:41:25;98626.00;;;37.73;26.96
1371;BME280;14306;49.942;11.570;2023-06-24T09:43:57;98611.63;;;37.18;26.50
1371;BME280;14306;49.942;11.570;2023-06-24T09:46:27;98561.97;;;35.78;29.05
1371;BME280;14306;49.942;11.570;2023-06-24T09:48:57;98568.56;;;35.87;29.09
1371;BME280;14306;49.942;11.570;2023-06-24T09:51:25;98514.50;;;33.75;32.08
1371;BME280;14306;49.942;11.570;2023-06-24T09:53:54;98583.34;;;36.64;27.85
1371;BME280;14306;49.942;11.570;2023-06-24T09:56:25;98578.31;;;36.43;27.49
1371;BME280;14306;49.942;11.570;2023-06-24T09:58:54;98530.88;;;34.81;28.93
1371;BME280;14306;49.942;11.570;2023-06-24T10:01:23;98569.09;;;36.55;27.56
1371;BME280;14306;49.942;11.570;2023-06-24T10:03:51;98599.94;;;37.78;26.35
1371;BME280;14306;49.942;11.570;2023-06-24T10:06:20;98570.44;;;37.04;26.80
1371;BME280;14306;49.942;11.570;2023-06-24T10:08:49;98532.50;;;35.63;28.06
1371;BME280;14306;49.942;11.570;2023-06-24T10:11:17;98608.47;;;38.25;25.56
1371;BME280;14306;49.942;11.570;2023-06-24T10:13:47;98571.44;;;37.10;26.24
1371;BME280;14306;49.942;11.570;2023-06-24T10:16:15;98584.00;;;37.47;26.13
1371;BME280;14306;49.942;11.570;2023-06-24T10:18:44;98539.28;;;36.10;27.74
1371;BME280;14306;49.942;11.570;2023-06-24T10:21:15;98531.72;;;35.78;27.67
1371;BME280;14306;49.942;11.570;2023-06-24T10:23:52;98568.28;;;36.96;26.09
1371;BME280;14306;49.942;11.570;2023-06-24T10:26:24;98503.78;;;35.03;27.75
1371;BME280;14306;49.942;11.570;2023-06-24T10:29:12;98558.09;;;37.11;26.30
1371;BME280;14306;49.942;11.570;2023-06-24T10:31:54;98583.19;;;37.84;25.09
1371;BME280;14306;49.942;11.570;2023-06-24T10:34:39;98595.75;;;38.51;24.95
1371;BME280;14306;49.942;11.570;2023-06-24T10:37:13;98603.22;;;38.58;23.70
1371;BME280;14306;49.942;11.570;2023-06-24T10:39:46;98555.41;;;37.20;25.63
1371;BME280;14306;49.942;11.570;2023-06-24T10:42:29;98588.06;;;38.51;24.22
1371;BME280;14306;49.942;11.570;2023-06-24T10:44:59;98513.81;;;35.69;26.20
1371;BME280;14306;49.942;11.570;2023-06-24T10:47:29;98489.59;;;35.07;27.12
1371;BME280;14306;49.942;11.570;2023-06-24T10:49:57;98536.38;;;36.70;25.07
1371;BME280;14306;49.942;11.570;2023-06-24T10:52:26;98499.34;;;35.67;26.58
1371;BME280;14306;49.942;11.570;2023-06-24T10:54:56;98479.53;;;35.22;26.03
1371;BME280;14306;49.942;11.570;2023-06-24T10:57:25;98460.03;;;34.79;26.89
1371;BME280;14306;49.942;11.570;2023-06-24T10:59:55;98451.66;;;34.60;28.10
1371;BME280;14306;49.942;11.570;2023-06-24T11:02:26;98451.47;;;34.31;26.95
1371;BME280;14306;49.942;11.570;2023-06-24T11:04:55;98444.47;;;34.20;26.82
1371;BME280;14306;49.942;11.570;2023-06-24T11:07:25;98454.59;;;34.72;26.59
1371;BME280;14306;49.942;11.570;2023-06-24T11:09:54;98455.84;;;34.87;26.66
1371;BME280;14306;49.942;11.570;2023-06-24T11:12:24;98463.16;;;35.17;26.29
1371;BME280;14306;49.942;11.570;2023-06-24T11:14:55;98441.03;;;34.32;27.23
1371;BME280;14306;49.942;11.570;2023-06-24T11:17:26;98475.50;;;35.55;26.46
1371;BME280;14306;49.942;11.570;2023-06-24T11:19:56;98487.03;;;36.18;24.97
1371;BME280;14306;49.942;11.570;2023-06-24T11:22:25;98484.59;;;35.91;26.08
1371;BME280;14306;49.942;11.570;2023-06-24T11:24:54;98478.75;;;35.98;26.04
1371;BME280;14306;49.942;11.570;2023-06-24T11:27:27;98451.41;;;34.70;27.32
1371;BME280;14306;49.942;11.570;2023-06-24T11:29:58;98466.69;;;35.21;26.79
1371;BME280;14306;49.942;11.570;2023-06-24T11:32:36;98456.41;;;35.14;27.56
1371;BME280;14306;49.942;11.570;2023-06-24T11:35:07;98447.78;;;34.70;28.00
1371;BME280;14306;49.942;11.570;2023-06-24T11:37:36;98470.25;;;35.70;27.29
1371;BME280;14306;49.942;11.570;2023-06-24T11:40:05;98435.97;;;34.59;27.97
1371;BME280;14306;49.942;11.570;2023-06-24T11:42:36;98431.28;;;34.17;28.88
1371;BME280;14306;49.942;11.570;2023-06-24T11:45:06;98412.63;;;33.87;28.97
1371;BME280;14306;49.942;11.570;2023-06-24T11:47:37;98428.50;;;34.52;28.67
1371;BME280;14306;49.942;11.570;2023-06-24T11:50:07;98422.78;;;34.56;28.64
1371;BME280;14306;49.942;11.570;2023-06-24T11:52:40;98439.16;;;35.57;26.75
1371;BME280;14306;49.942;11.570;2023-06-24T11:55:16;98391.50;;;33.60;28.40
1371;BME280;14306;49.942;11.570;2023-06-24T11:57:55;98377.28;;;33.24;29.36
1371;BME280;14306;49.942;11.570;2023-06-24T12:00:25;98324.69;;;31.46;31.45
1371;BME280;14306;49.942;11.570;2023-06-24T12:02:57;98337.09;;;31.78;31.94
1371;BME280;14306;49.942;11.570;2023-06-24T12:05:27;98311.97;;;31.01;32.02
1371;BME280;14306;49.942;11.570;2023-06-24T12:07:58;98330.97;;;31.57;31.64
1371;BME280;14306;49.942;11.570;2023-06-24T12:10:27;98331.50;;;31.45;32.12
1371;BME280;14306;49.942;11.570;2023-06-24T12:12:57;98324.63;;;31.16;32.74
1371;BME280;14306;49.942;11.570;2023-06-24T12:15:25;98318.56;;;31.24;31.65
1371;BME280;14306;49.942;11.570;2023-06-24T12:17:55;98340.50;;;31.63;30.52
1371;BME280;14306;49.942;11.570;2023-06-24T12:20:24;98317.38;;;31.18;31.20
1371;BME280;14306;49.942;11.570;2023-06-24T12:22:56;98283.16;;;30.19;32.04
1371;BME280;14306;49.942;11.570;2023-06-24T12:25:24;98303.69;;;30.90;31.20
1371;BME280;14306;49.942;11.570;2023-06-24T12:27:52;98320.72;;;31.43;30.55
1371;BME280;14306;49.942;11.570;2023-06-24T12:30:21;98299.03;;;30.80;30.97
1371;BME280;14306;49.942;11.570;2023-06-24T12:32:50;98294.94;;;30.88;31.15
1371;BME280;14306;49.942;11.570;2023-06-24T12:35:21;98289.50;;;30.67;32.02
1371;BME280;14306;49.942;11.570;2023-06-24T12:37:52;98289.56;;;30.64;32.49
1371;BME280;14306;49.942;11.570;2023-06-24T12:40:20;98275.03;;;30.35;32.01
1371;BME280;14306;49.942;11.570;2023-06-24T12:42:49;98293.72;;;31.26;31.23
1371;BME280;14306;49.942;11.570;2023-06-24T12:45:17;98303.00;;;31.53;31.29
1371;BME280;14306;49.942;11.570;2023-06-24T12:47:46;98293.38;;;31.17;30.73
1371;BME280;14306;49.942;11.570;2023-06-24T12:50:15;98277.59;;;30.60;31.16
1371;BME280;14306;49.942;11.570;2023-06-24T12:52:45;98282.66;;;31.12;30.43
1371;BME280;14306;49.942;11.570;2023-06-24T12:55:13;98288.25;;;31.12;30.58
1371;BME280;14306;49.942;11.570;2023-06-24T12:57:43;98269.56;;;30.62;31.63
1371;BME280;14306;49.942;11.570;2023-06-24T13:00:13;98283.72;;;31.25;30.92
1371;BME280;14306;49.942;11.570;2023-06-24T13:02:41;98267.28;;;30.50;32.28
1371;BME280;14306;49.942;11.570;2023-06-24T13:05:10;98245.13;;;29.74;34.01
1371;BME280;14306;49.942;11.570;2023-06-24T13:07:38;98240.00;;;29.62;33.66
1371;BME280;14306;49.942;11.570;2023-06-24T13:10:09;98244.19;;;29.19;33.31
1371;BME280;14306;49.942;11.570;2023-06-24T13:12:37;98239.97;;;29.66;32.90
1371;BME280;14306;49.942;11.570;2023-06-24T13:15:07;98276.91;;;30.89;30.71
1371;BME280;14306;49.942;11.570;2023-06-24T13:17:36;98260.66;;;30.33;31.52
1371;BME280;14306;49.942;11.570;2023-06-24T13:20:06;98296.66;;;31.76;30.57
1371;BME280;14306;49.942;11.570;2023-06-24T13:22:34;98291.47;;;31.78;30.07
1371;BME280;14306;49.942;11.570;2023-06-24T13:25:02;98264.53;;;31.24;30.86
1371;BME280;14306;49.942;11.570;2023-06-24T13:27:32;98260.81;;;31.00;30.58
1371;BME280;14306;49.942;11.570;2023-06-24T13:30:04;98257.44;;;30.79;31.50
1371;BME280;14306;49.942;11.570;2023-06-24T13:32:33;98255.06;;;30.77;30.42